TimeEST,TemperatureF,Dew PointF,Humidity,Sea Level PressureIn,VisibilityMPH,Wind Direction,Wind SpeedMPH,Gust SpeedMPH,PrecipitationIn,Events,Conditions,WindDirDegrees,DateUTC
12:54 AM,33.1,26.1,75,30.25,10.0,Calm,Calm,-,N/A,,Clear,0,2012-12-15 05:54:00
1:54 AM,30.9,26.1,82,30.24,10.0,Calm,Calm,-,N/A,,Clear,0,2012-12-15 06:54:00
2:54 AM,32.0,25.0,75,30.25,10.0,Calm,Calm,-,N/A,,Clear,0,2012-12-15 07:54:00
3:54 AM,33.1,25.0,72,30.23,10.0,Calm,Calm,-,N/A,,Clear,0,2012-12-15 08:54:00
4:54 AM,33.1,28.0,82,30.22,10.0,Calm,Calm,-,N/A,,Clear,0,2012-12-15 09:54:00
5:54 AM,34.0,27.0,75,30.25,10.0,Calm,Calm,-,N/A,,Clear,0,2012-12-15 10:54:00
6:54 AM,37.9,25.0,60,30.27,10.0,NNE,3.5,-,N/A,,Clear,20,2012-12-15 11:54:00
7:54 AM,36.0,26.1,67,30.26,10.0,Calm,Calm,-,N/A,,Clear,0,2012-12-15 12:54:00
8:54 AM,39.9,28.9,65,30.28,10.0,Calm,Calm,-,N/A,,Clear,0,2012-12-15 13:54:00
9:54 AM,42.1,27.0,55,30.28,10.0,NNE,3.5,-,N/A,,Clear,30,2012-12-15 14:54:00
10:54 AM,43.0,28.0,56,30.28,10.0,Calm,Calm,-,N/A,,Clear,0,2012-12-15 15:54:00
11:54 AM,48.9,28.0,44,30.26,10.0,Calm,Calm,-,N/A,,Clear,0,2012-12-15 16:54:00
12:54 PM,53.1,28.0,38,30.21,10.0,SSW,4.6,-,N/A,,Clear,210,2012-12-15 17:54:00
1:54 PM,55.0,26.1,33,30.17,10.0,Calm,Calm,-,N/A,,Clear,0,2012-12-15 18:54:00
2:54 PM,55.0,25.0,31,30.15,10.0,SSE,8.1,-,N/A,,Clear,160,2012-12-15 19:54:00
3:54 PM,53.1,26.1,35,30.16,10.0,SSE,5.8,-,N/A,,Partly Cloudy,160,2012-12-15 20:54:00
4:54 PM,52.0,25.0,35,30.16,10.0,South,5.8,-,N/A,,Mostly Cloudy,170,2012-12-15 21:54:00
5:54 PM,50.0,26.1,39,30.15,10.0,SSE,5.8,-,N/A,,Overcast,160,2012-12-15 22:54:00
6:54 PM,50.0,27.0,41,30.15,10.0,SSE,4.6,-,N/A,,Overcast,160,2012-12-15 23:54:00
7:54 PM,48.0,28.9,48,30.14,10.0,SE,4.6,-,N/A,,Mostly Cloudy,140,2012-12-16 00:54:00
8:54 PM,48.0,30.0,50,30.14,10.0,Calm,Calm,-,N/A,,Overcast,0,2012-12-16 01:54:00
9:54 PM,48.0,30.0,50,30.13,10.0,South,4.6,-,N/A,,Overcast,180,2012-12-16 02:54:00
10:54 PM,48.0,30.0,50,30.11,10.0,South,5.8,-,0.00,,Overcast,170,2012-12-16 03:54:00
11:54 PM,45.0,34.0,65,30.09,10.0,SSE,5.8,-,0.00,Rain,Light Rain,160,2012-12-16 04:54:00